Nantucket, MA

1:10 PM EST on February 21, 2017 (GMT -0500)
Wauwinet | | Change Station

Elev 20 ft 41.33 °N, 69.99 °W | Updated 11 seconds ago

Clear
Clear
40.1 °F
Feels Like 35 °F
N
7.0
Wind Variable Wind from ENE
Gusts 8.0 mph

Today
High -- | Low -- °F
--% Chance of Precip.
Yesterday
High -- | Low -- °F
Precip. -- in
Pressure 30.31 in
Visibility 10.0 miles
Clouds Clear
Windchill 35 °F
Dew Point 31 °F
Humidity 69%
Rainfall 0.00 in
Snow Depth Not available.
6:26 AM 5:21 PM
Waning Crescent, 23% visible
METAR KACK 211753Z 02009KT 10SM CLR 06/M03 A3031 RMK AO2 SLP263 T00611033 10067 20017 56020
Pressure 30.31 in
Visibility 10.0 miles
Clouds Clear
Windchill 35 °F
Dew Point 31 °F
Humidity 69%
Rainfall 0.00 in
Snow Depth Not available.
6:26 AM 5:21 PM
Waning Crescent, 23% visible
METAR KACK 211753Z 02009KT 10SM CLR 06/M03 A3031 RMK AO2 SLP263 T00611033 10067 20017 56020

Get Your Daily Forecast Email!

Thanks for signing up!

Be on the lookout for a verification email in your inbox.

You'll start receiving the daily forecast at 8 AM.

×

10-Day Weather Forecast

Almanac

Astronomy

Feb. 21, 2017 Rise Set
Actual Time
Civil Twilight
Nautical Twilight
Astronomical Twilight
Moon
Length of Visible Light
Length of Day
Tomorrow will be .
, % of the Moon is Illuminated

Today's Extremes

State Highs State Lows

Community

WunderPhotos

Upload Photos

1,962,540 photos uploaded!

WunderBlog® & News

Nearby

Air Quality

  Air Quality AQ Index Pollutant
Not available.

Snow Depth

Station Depth Elevation

Earthquake Activity

City Distance Mag. Time & Date
Minimum magnitude displayed is 2.5.

Coastal Water Temperatures

Place Temperature

Stations

Nearby Weather Stations

Station Location Temp. Windchill Dew Point Humidity Wind Precip. Elev Updated Type
                   

Watches & Warnings

There are currently no watches in effect.